createdAt,value
2023-01-08T00:01:13.935Z,7.98
2023-01-08T00:03:41.850Z,7.98
2023-01-08T00:06:13.035Z,8.07
2023-01-08T00:08:40.653Z,8.01
2023-01-08T00:11:08.590Z,8.23
2023-01-08T00:13:35.927Z,8.10
2023-01-08T00:16:10.916Z,7.99
2023-01-08T00:18:38.337Z,7.91
2023-01-08T00:21:06.233Z,7.92
2023-01-08T00:23:34.210Z,7.85
2023-01-08T00:26:02.974Z,7.90
2023-01-08T00:28:30.652Z,7.86
2023-01-08T00:30:58.215Z,7.79
2023-01-08T00:33:25.687Z,7.88
2023-01-08T00:35:52.980Z,7.87
2023-01-08T00:38:20.379Z,7.91
2023-01-08T00:40:48.684Z,7.88
2023-01-08T00:43:16.035Z,7.83
2023-01-08T00:45:43.565Z,7.85
2023-01-08T00:48:11.167Z,7.95
2023-01-08T00:50:38.536Z,7.92
2023-01-08T00:53:05.936Z,7.92
2023-01-08T00:55:33.360Z,7.96
2023-01-08T00:58:00.761Z,7.83
2023-01-08T01:00:28.647Z,7.91
2023-01-08T01:02:56.019Z,7.95
2023-01-08T01:05:23.632Z,7.87
2023-01-08T01:07:51.201Z,7.90
2023-01-08T01:10:18.889Z,7.90
2023-01-08T01:12:46.367Z,7.90
2023-01-08T01:15:16.452Z,7.92
2023-01-08T01:17:45.640Z,7.96
2023-01-08T01:20:15.881Z,7.97
2023-01-08T01:22:43.755Z,7.99
2023-01-08T01:25:11.173Z,7.96
2023-01-08T01:27:38.604Z,7.88
2023-01-08T01:30:06.871Z,7.91
2023-01-08T01:32:34.304Z,7.88
2023-01-08T01:35:02.062Z,7.93
2023-01-08T01:37:29.465Z,7.85
2023-01-08T01:39:56.831Z,7.89
2023-01-08T01:42:43.829Z,7.92
2023-01-08T01:45:17.434Z,7.89
2023-01-08T01:47:55.349Z,7.91
2023-01-08T01:50:35.063Z,7.90
2023-01-08T01:53:10.529Z,7.91
2023-01-08T01:55:43.759Z,7.91
2023-01-08T01:58:16.699Z,7.94
2023-01-08T02:00:44.821Z,7.96
2023-01-08T02:03:15.015Z,7.94
2023-01-08T02:05:45.402Z,8.07
2023-01-08T02:08:20.660Z,8.01
2023-01-08T02:11:05.273Z,7.95
2023-01-08T02:13:38.530Z,7.97
2023-01-08T02:16:38.205Z,7.98
2023-01-08T02:19:52.973Z,7.95
2023-01-08T02:22:38.610Z,7.85
2023-01-08T02:25:11.364Z,7.87
2023-01-08T02:27:42.909Z,7.93
2023-01-08T02:30:11.327Z,7.89
2023-01-08T02:32:40.574Z,7.87
2023-01-08T02:35:09.935Z,7.89
2023-01-08T02:37:38.320Z,7.94
2023-01-08T02:40:30.973Z,7.94
2023-01-08T02:42:59.111Z,7.89
2023-01-08T02:45:30.572Z,7.86
2023-01-08T02:48:17.782Z,7.86
2023-01-08T02:50:53.227Z,7.91
2023-01-08T02:53:25.163Z,7.88
2023-01-08T02:55:57.051Z,7.85
2023-01-08T02:58:26.059Z,7.88
2023-01-08T03:00:54.589Z,7.90
2023-01-08T03:03:27.169Z,7.91
2023-01-08T03:06:07.691Z,7.86
2023-01-08T03:08:42.170Z,7.85
2023-01-08T03:11:12.623Z,7.87
2023-01-08T03:13:50.905Z,7.91
2023-01-08T03:16:25.919Z,7.87
2023-01-08T03:19:07.278Z,7.87
2023-01-08T03:21:37.795Z,7.92
2023-01-08T03:24:06.651Z,7.90
2023-01-08T03:26:37.638Z,7.84
2023-01-08T03:29:06.046Z,7.83
2023-01-08T03:31:35.924Z,7.82
2023-01-08T03:34:05.113Z,7.79
2023-01-08T03:36:36.708Z,7.85
2023-01-08T03:39:16.831Z,7.88
2023-01-08T03:41:44.535Z,7.81
2023-01-08T03:44:12.026Z,7.85
2023-01-08T03:46:45.655Z,7.88
2023-01-08T03:49:13.727Z,7.78
2023-01-08T03:51:46.916Z,7.84
2023-01-08T03:54:18.206Z,7.81
2023-01-08T03:56:46.028Z,7.77
2023-01-08T03:59:14.298Z,7.78
2023-01-08T04:01:42.967Z,7.82
2023-01-08T04:04:11.647Z,7.82
2023-01-08T04:06:39.316Z,7.86
2023-01-08T04:09:07.212Z,7.87
2023-01-08T04:11:34.601Z,7.91
2023-01-08T04:14:02.239Z,7.83
2023-01-08T04:16:29.685Z,7.91
2023-01-08T04:18:57.065Z,7.89
2023-01-08T04:21:24.551Z,7.86
2023-01-08T04:23:52.012Z,7.95
2023-01-08T04:26:19.554Z,7.88
2023-01-08T04:28:46.950Z,7.85
2023-01-08T04:31:14.458Z,7.83
2023-01-08T04:33:41.977Z,7.81
2023-01-08T04:36:10.099Z,7.69
2023-01-08T04:38:37.680Z,7.72
2023-01-08T04:41:05.455Z,7.65
2023-01-08T04:43:33.188Z,7.72
2023-01-08T04:46:02.203Z,7.74
2023-01-08T04:48:31.173Z,7.71
2023-01-08T04:51:00.275Z,7.61
2023-01-08T04:53:29.112Z,7.60
2023-01-08T04:55:56.650Z,7.70
2023-01-08T04:58:24.180Z,7.76
2023-01-08T05:00:51.581Z,7.71
2023-01-08T05:03:19.047Z,7.71
2023-01-08T05:05:48.566Z,7.69
2023-01-08T05:08:17.250Z,7.84
2023-01-08T05:10:44.708Z,7.71
2023-01-08T05:13:12.113Z,7.64
2023-01-08T05:15:39.788Z,7.74
2023-01-08T05:18:07.317Z,7.72
2023-01-08T05:20:35.148Z,7.69
2023-01-08T05:23:02.614Z,7.69
2023-01-08T05:25:30.165Z,7.74
2023-01-08T05:27:57.505Z,7.68
2023-01-08T05:30:24.905Z,7.75
2023-01-08T05:32:52.368Z,7.69
2023-01-08T05:35:19.862Z,7.66
2023-01-08T05:37:47.177Z,7.84
2023-01-08T05:40:14.591Z,7.70
2023-01-08T05:42:42.126Z,7.83
2023-01-08T05:45:09.748Z,7.73
2023-01-08T05:47:37.277Z,7.73
2023-01-08T05:50:05.057Z,7.77
2023-01-08T05:52:32.700Z,7.72
2023-01-08T05:55:00.333Z,7.81
2023-01-08T05:57:27.764Z,7.78
2023-01-08T05:59:55.245Z,7.77
2023-01-08T06:02:22.817Z,7.72
2023-01-08T06:04:50.227Z,7.67
2023-01-08T06:07:17.651Z,7.58
2023-01-08T06:09:45.074Z,7.61
2023-01-08T06:12:12.518Z,7.66
2023-01-08T06:14:39.969Z,7.65
2023-01-08T06:17:07.390Z,7.72
2023-01-08T06:19:35.085Z,7.63
2023-01-08T06:22:02.436Z,7.57
2023-01-08T06:24:29.858Z,7.60
2023-01-08T06:26:57.356Z,7.68
2023-01-08T06:29:24.813Z,7.64
2023-01-08T06:31:52.164Z,7.65
2023-01-08T06:34:19.562Z,7.59
2023-01-08T06:36:46.901Z,7.70
2023-01-08T06:39:15.015Z,7.71
2023-01-08T06:41:43.266Z,7.62
2023-01-08T06:44:10.849Z,7.63
2023-01-08T06:46:40.438Z,7.64
2023-01-08T06:49:08.468Z,7.69
2023-01-08T06:51:36.731Z,7.69
2023-01-08T06:54:04.303Z,7.68
2023-01-08T06:56:32.228Z,7.61
2023-01-08T06:59:00.862Z,7.55
2023-01-08T07:01:28.381Z,7.64
2023-01-08T07:03:56.334Z,7.62
2023-01-08T07:06:24.093Z,7.61
2023-01-08T07:08:51.578Z,7.74
2023-01-08T07:11:19.071Z,7.84
2023-01-08T07:13:46.547Z,7.79
2023-01-08T07:16:16.011Z,7.83
2023-01-08T07:18:44.109Z,7.75
2023-01-08T07:21:11.821Z,7.73
2023-01-08T07:23:39.305Z,7.73
2023-01-08T07:26:08.248Z,7.83
2023-01-08T07:28:35.611Z,7.84
2023-01-08T07:31:04.776Z,7.91
2023-01-08T07:33:32.262Z,7.73
2023-01-08T07:35:59.663Z,7.76
2023-01-08T07:38:27.078Z,7.87
2023-01-08T07:40:54.494Z,7.84
2023-01-08T07:43:21.911Z,7.83
2023-01-08T07:45:49.348Z,7.69
2023-01-08T07:48:16.833Z,7.81
2023-01-08T07:50:44.523Z,7.82
2023-01-08T07:53:13.750Z,7.86
2023-01-08T07:55:41.139Z,7.81
2023-01-08T07:58:10.219Z,7.80
2023-01-08T08:00:37.661Z,7.81
2023-01-08T08:03:06.865Z,7.82
2023-01-08T08:05:35.155Z,7.84
2023-01-08T08:08:07.559Z,7.93
2023-01-08T08:10:35.181Z,7.81
2023-01-08T08:13:02.663Z,7.88
2023-01-08T08:15:30.067Z,7.87
2023-01-08T08:17:57.717Z,7.80
2023-01-08T08:20:25.579Z,7.81
2023-01-08T08:22:59.878Z,7.83
2023-01-08T08:25:27.422Z,7.81
2023-01-08T08:27:57.780Z,7.88
2023-01-08T08:30:26.896Z,7.91
2023-01-08T08:32:55.020Z,7.91
2023-01-08T08:35:22.678Z,7.85
2023-01-08T08:37:50.142Z,7.91
2023-01-08T08:40:17.624Z,7.87
2023-01-08T08:42:45.392Z,7.88
2023-01-08T08:45:12.784Z,7.84
2023-01-08T08:47:40.828Z,7.94
2023-01-08T08:50:08.429Z,8.06
2023-01-08T08:52:37.524Z,8.07
2023-01-08T08:55:06.122Z,8.10
2023-01-08T08:57:33.514Z,8.08
2023-01-08T09:00:01.433Z,8.20
2023-01-08T09:02:29.478Z,8.07
2023-01-08T09:04:56.961Z,8.05
2023-01-08T09:07:24.483Z,8.14
2023-01-08T09:09:51.924Z,8.12
2023-01-08T09:12:19.321Z,8.05
2023-01-08T09:14:46.705Z,8.01
2023-01-08T09:17:14.104Z,7.98
2023-01-08T09:19:41.386Z,8.03
2023-01-08T09:22:08.682Z,8.08
2023-01-08T09:24:36.173Z,8.08
2023-01-08T09:27:03.929Z,8.07
2023-01-08T09:29:31.244Z,7.91
2023-01-08T09:32:00.566Z,8.05
2023-01-08T09:34:28.093Z,8.07
2023-01-08T09:36:55.503Z,7.97
2023-01-08T09:39:22.821Z,7.98
2023-01-08T09:41:51.941Z,8.00
2023-01-08T09:44:25.310Z,8.01
2023-01-08T09:46:56.026Z,8.00
2023-01-08T09:49:30.779Z,8.05
2023-01-08T09:51:59.243Z,8.07
2023-01-08T09:54:27.242Z,8.12
2023-01-08T09:56:54.931Z,7.98
2023-01-08T09:59:22.424Z,7.93
2023-01-08T10:01:52.432Z,7.97
2023-01-08T10:04:22.443Z,7.96
2023-01-08T10:06:56.988Z,7.96
2023-01-08T10:09:28.274Z,8.11
2023-01-08T10:12:00.528Z,8.07
2023-01-08T10:14:39.763Z,8.14
2023-01-08T10:17:22.224Z,8.09
2023-01-08T10:19:49.614Z,8.08
2023-01-08T10:22:19.988Z,8.08
2023-01-08T10:24:47.644Z,8.10
2023-01-08T10:27:24.182Z,8.07
2023-01-08T10:29:52.419Z,7.97
2023-01-08T10:32:28.868Z,7.95
2023-01-08T10:34:57.648Z,7.94
2023-01-08T10:37:42.469Z,8.00
2023-01-08T10:40:35.157Z,7.99
2023-01-08T10:43:28.093Z,8.03
2023-01-08T10:46:05.253Z,8.05
2023-01-08T10:48:44.574Z,8.13
2023-01-08T10:51:19.876Z,8.04
2023-01-08T10:53:47.725Z,7.94
2023-01-08T10:56:27.339Z,7.93
2023-01-08T10:58:55.194Z,7.87
2023-01-08T11:01:25.538Z,7.90
2023-01-08T11:04:05.102Z,7.93
2023-01-08T11:06:40.843Z,7.85
2023-01-08T11:09:25.634Z,7.86
2023-01-08T11:11:52.988Z,7.75
2023-01-08T11:14:28.004Z,7.79
2023-01-08T11:16:56.134Z,7.78
2023-01-08T11:19:29.608Z,7.84
2023-01-08T11:22:02.804Z,7.87
2023-01-08T11:24:35.244Z,7.92
2023-01-08T11:27:16.857Z,7.86
2023-01-08T11:29:53.725Z,7.84
2023-01-08T11:32:23.743Z,7.87
2023-01-08T11:34:53.725Z,7.85
2023-01-08T11:37:26.377Z,7.85
2023-01-08T11:39:55.740Z,7.86
2023-01-08T11:42:41.486Z,7.98
2023-01-08T11:45:21.099Z,7.97
2023-01-08T11:48:09.372Z,7.97
2023-01-08T11:51:04.658Z,7.83
2023-01-08T11:53:47.141Z,7.81
2023-01-08T11:56:42.848Z,7.81
2023-01-08T11:59:22.896Z,7.86
2023-01-08T12:02:24.489Z,7.84
2023-01-08T12:05:24.095Z,7.87
2023-01-08T12:08:05.426Z,7.91
2023-01-08T12:10:43.606Z,7.84
2023-01-08T12:14:01.909Z,7.82
2023-01-08T12:16:38.155Z,7.79
2023-01-08T12:19:05.439Z,7.72
2023-01-08T12:21:36.857Z,7.79
2023-01-08T12:24:19.453Z,7.88
2023-01-08T12:27:05.220Z,7.87
2023-01-08T12:29:55.395Z,7.82
2023-01-08T12:32:56.570Z,7.89
2023-01-08T12:35:40.827Z,7.94
2023-01-08T12:38:30.421Z,8.08
2023-01-08T12:41:04.998Z,8.14
2023-01-08T12:43:38.608Z,8.09
2023-01-08T12:46:07.034Z,8.12
2023-01-08T12:48:36.745Z,8.06
2023-01-08T12:51:21.118Z,8.04
2023-01-08T12:54:16.337Z,8.01
2023-01-08T12:56:57.029Z,7.98
2023-01-08T12:59:36.627Z,7.99
2023-01-08T13:02:15.434Z,8.00
2023-01-08T13:04:46.379Z,7.98
2023-01-08T13:07:35.946Z,7.97
2023-01-08T13:10:08.029Z,7.97
2023-01-08T13:12:37.774Z,7.97
2023-01-08T13:15:06.885Z,7.94
2023-01-08T13:17:34.812Z,7.96
2023-01-08T13:20:06.424Z,7.82
2023-01-08T13:22:35.963Z,7.81
2023-01-08T13:25:15.443Z,7.88
2023-01-08T13:27:43.671Z,7.84
2023-01-08T13:30:35.542Z,7.67
2023-01-08T13:33:03.083Z,7.70
2023-01-08T13:35:31.906Z,7.62
2023-01-08T13:38:21.048Z,7.56
2023-01-08T13:40:51.256Z,7.51
2023-01-08T13:43:22.634Z,7.59
2023-01-08T13:46:17.370Z,7.67
2023-01-08T13:48:56.983Z,7.53
2023-01-08T13:51:43.372Z,7.51
2023-01-08T13:54:14.120Z,7.46
2023-01-08T13:56:43.735Z,7.55
2023-01-08T13:59:31.315Z,7.50
2023-01-08T14:02:01.391Z,7.51
2023-01-08T14:04:28.845Z,7.42
2023-01-08T14:07:14.736Z,7.56
2023-01-08T14:09:42.108Z,7.56
2023-01-08T14:12:20.436Z,7.57
2023-01-08T14:14:54.180Z,7.36
2023-01-08T14:17:28.868Z,7.38
2023-01-08T14:19:56.754Z,7.41
2023-01-08T14:22:31.033Z,7.41
2023-01-08T14:25:02.611Z,7.46
2023-01-08T14:27:31.605Z,7.46
2023-01-08T14:29:59.238Z,7.46
2023-01-08T14:32:29.448Z,7.49
2023-01-08T14:34:59.678Z,7.53
2023-01-08T14:37:27.178Z,7.61
2023-01-08T14:39:55.285Z,7.63
2023-01-08T14:42:47.095Z,7.60
2023-01-08T14:45:21.564Z,7.66
2023-01-08T14:47:52.363Z,7.65
2023-01-08T14:50:33.663Z,7.64
2023-01-08T14:53:07.721Z,7.60
2023-01-08T14:55:41.875Z,7.56
2023-01-08T14:58:20.558Z,7.57
2023-01-08T15:00:54.240Z,7.58
2023-01-08T15:03:36.533Z,7.63
2023-01-08T15:06:07.494Z,7.65
2023-01-08T15:08:39.492Z,7.70
2023-01-08T15:11:15.503Z,7.78
2023-01-08T15:13:42.908Z,7.71
2023-01-08T15:16:16.834Z,7.72
2023-01-08T15:19:02.996Z,7.77
2023-01-08T15:21:31.037Z,7.73
2023-01-08T15:24:01.101Z,7.68
2023-01-08T15:26:28.997Z,7.63
2023-01-08T15:29:00.140Z,7.64
2023-01-08T15:31:46.785Z,7.72
2023-01-08T15:34:16.071Z,7.67
2023-01-08T15:36:43.445Z,7.73
2023-01-08T15:39:10.880Z,7.71
2023-01-08T15:41:58.447Z,7.71
2023-01-08T15:44:26.157Z,7.66
2023-01-08T15:46:54.327Z,7.83
2023-01-08T15:49:21.690Z,7.70
2023-01-08T15:51:51.211Z,7.70
2023-01-08T15:54:20.709Z,7.68
2023-01-08T15:56:48.080Z,7.65
2023-01-08T15:59:15.442Z,7.60
2023-01-08T16:01:42.885Z,7.65
2023-01-08T16:04:10.331Z,7.56
2023-01-08T16:06:37.877Z,7.58
2023-01-08T16:09:05.331Z,7.60
2023-01-08T16:11:32.671Z,7.63
2023-01-08T16:14:00.011Z,7.63
2023-01-08T16:16:27.343Z,7.66
2023-01-08T16:18:54.754Z,7.56
2023-01-08T16:21:22.073Z,7.62
2023-01-08T16:23:49.458Z,7.49
2023-01-08T16:26:16.854Z,7.47
2023-01-08T16:28:44.423Z,7.59
2023-01-08T16:31:12.931Z,7.61
2023-01-08T16:33:40.343Z,7.65
2023-01-08T16:36:08.794Z,7.64
2023-01-08T16:38:36.900Z,7.62
2023-01-08T16:41:04.771Z,7.69
2023-01-08T16:43:39.747Z,7.60
2023-01-08T16:46:15.118Z,7.46
2023-01-08T16:48:42.881Z,7.39
2023-01-08T16:51:11.019Z,7.44
2023-01-08T16:53:38.800Z,7.51
2023-01-08T16:56:06.609Z,7.51
2023-01-08T16:58:35.091Z,7.48
2023-01-08T17:01:07.914Z,7.42
2023-01-08T17:03:35.495Z,7.41
2023-01-08T17:06:07.549Z,7.46
2023-01-08T17:08:39.915Z,7.70
2023-01-08T17:11:12.686Z,7.59
2023-01-08T17:13:40.545Z,7.67
2023-01-08T17:16:10.230Z,7.55
2023-01-08T17:18:38.249Z,7.57
2023-01-08T17:21:07.679Z,7.59
2023-01-08T17:23:35.988Z,7.56
2023-01-08T17:26:08.855Z,7.57
2023-01-08T17:28:36.942Z,7.58
2023-01-08T17:31:07.579Z,7.46
2023-01-08T17:33:36.119Z,7.62
2023-01-08T17:36:22.622Z,7.48
2023-01-08T17:38:50.815Z,7.42
2023-01-08T17:41:37.300Z,7.61
2023-01-08T17:44:06.998Z,7.49
2023-01-08T17:46:43.865Z,7.53
2023-01-08T17:49:13.773Z,7.50
2023-01-08T17:51:42.263Z,7.50
2023-01-08T17:54:15.357Z,7.47
2023-01-08T17:56:43.701Z,7.53
2023-01-08T17:59:15.964Z,7.52
2023-01-08T18:01:45.278Z,7.62
2023-01-08T18:04:14.313Z,7.63
2023-01-08T18:07:06.960Z,7.74
2023-01-08T18:09:36.741Z,7.73
2023-01-08T18:12:04.554Z,7.63
2023-01-08T18:14:32.135Z,7.62
2023-01-08T18:16:59.474Z,7.67
2023-01-08T18:19:26.876Z,7.72
2023-01-08T18:21:54.960Z,7.73
2023-01-08T18:24:22.351Z,7.70
2023-01-08T18:26:50.229Z,7.66
2023-01-08T18:29:17.565Z,7.73
2023-01-08T18:31:46.296Z,7.68
2023-01-08T18:34:15.172Z,7.62
2023-01-08T18:36:42.773Z,7.68
2023-01-08T18:39:11.991Z,7.69
2023-01-08T18:41:57.752Z,7.78
2023-01-08T18:44:25.189Z,7.80
2023-01-08T18:46:52.608Z,7.92
2023-01-08T18:49:20.351Z,7.98
2023-01-08T18:51:47.891Z,7.83
2023-01-08T18:54:15.677Z,7.85
2023-01-08T18:56:43.018Z,7.91
2023-01-08T18:59:11.179Z,7.90
2023-01-08T19:01:39.028Z,7.89
2023-01-08T19:04:06.886Z,7.83
2023-01-08T19:06:35.077Z,7.89
2023-01-08T19:09:02.443Z,7.78
2023-01-08T19:11:29.825Z,7.82
2023-01-08T19:13:57.745Z,7.76
2023-01-08T19:16:25.740Z,7.85
2023-01-08T19:18:53.372Z,7.91
2023-01-08T19:21:21.636Z,7.97
2023-01-08T19:23:49.087Z,7.86
2023-01-08T19:26:16.991Z,7.93
2023-01-08T19:28:44.517Z,7.89
2023-01-08T19:31:15.640Z,7.88
2023-01-08T19:33:43.315Z,7.86
2023-01-08T19:36:16.056Z,7.87
2023-01-08T19:38:44.385Z,7.87
2023-01-08T19:41:31.207Z,7.87
2023-01-08T19:43:59.459Z,7.87
2023-01-08T19:46:27.593Z,7.90
2023-01-08T19:49:00.173Z,7.88
2023-01-08T19:51:29.240Z,7.92
2023-01-08T19:53:58.148Z,7.89
2023-01-08T19:56:25.866Z,7.92
2023-01-08T19:58:54.525Z,7.94
2023-01-08T20:01:27.939Z,7.91
2023-01-08T20:03:56.400Z,7.94
2023-01-08T20:06:26.838Z,7.93
2023-01-08T20:08:59.532Z,7.94
2023-01-08T20:11:28.225Z,7.95
2023-01-08T20:13:56.226Z,7.97
2023-01-08T20:16:24.477Z,7.96
2023-01-08T20:18:56.502Z,7.98
2023-01-08T20:21:24.216Z,7.99
2023-01-08T20:24:00.470Z,8.00
2023-01-08T20:26:29.048Z,8.05
2023-01-08T20:28:57.875Z,8.04
2023-01-08T20:31:29.569Z,8.10
2023-01-08T20:33:58.668Z,8.11
2023-01-08T20:36:29.571Z,8.15
2023-01-08T20:38:59.270Z,8.27
2023-01-08T20:41:27.077Z,8.34
2023-01-08T20:43:57.886Z,8.37
2023-01-08T20:46:29.866Z,8.53
2023-01-08T20:48:59.794Z,8.68
2023-01-08T20:51:27.191Z,8.57
2023-01-08T20:53:54.528Z,8.63
2023-01-08T20:56:21.980Z,8.77
2023-01-08T20:58:50.130Z,8.81
2023-01-08T21:01:23.087Z,8.87
2023-01-08T21:03:56.649Z,8.85
2023-01-08T21:06:27.087Z,8.86
2023-01-08T21:08:56.846Z,8.90
2023-01-08T21:11:25.767Z,9.03
2023-01-08T21:13:55.498Z,9.06
2023-01-08T21:16:25.386Z,8.96
2023-01-08T21:18:54.301Z,8.86
2023-01-08T21:21:29.672Z,8.91
2023-01-08T21:23:57.431Z,8.95
2023-01-08T21:26:24.831Z,8.95
2023-01-08T21:28:52.999Z,8.94
2023-01-08T21:31:23.269Z,8.92
2023-01-08T21:33:51.402Z,8.92
2023-01-08T21:36:21.963Z,8.98
2023-01-08T21:38:50.218Z,9.07
2023-01-08T21:41:43.888Z,9.31
2023-01-08T21:44:35.887Z,9.29
2023-01-08T21:47:05.365Z,9.03
2023-01-08T21:49:32.989Z,8.96
2023-01-08T21:52:19.053Z,8.93
2023-01-08T21:54:46.464Z,9.05
2023-01-08T21:57:13.787Z,9.02
2023-01-08T21:59:41.138Z,9.01
2023-01-08T22:02:15.379Z,9.05
2023-01-08T22:04:43.887Z,9.16
2023-01-08T22:07:11.755Z,9.06
2023-01-08T22:09:39.310Z,9.03
2023-01-08T22:12:07.271Z,9.07
2023-01-08T22:14:35.296Z,9.01
2023-01-08T22:17:04.131Z,9.21
2023-01-08T22:19:31.645Z,9.23
2023-01-08T22:21:59.032Z,9.11
2023-01-08T22:24:26.389Z,9.20
2023-01-08T22:26:53.807Z,9.21
2023-01-08T22:29:21.151Z,9.13
2023-01-08T22:31:48.553Z,9.18
2023-01-08T22:34:17.591Z,9.06
2023-01-08T22:36:53.940Z,9.07
2023-01-08T22:39:21.333Z,9.18
2023-01-08T22:41:50.077Z,9.26
2023-01-08T22:44:18.346Z,9.22
2023-01-08T22:46:45.762Z,9.22
2023-01-08T22:49:13.700Z,9.20
2023-01-08T22:51:44.419Z,9.15
2023-01-08T22:54:12.945Z,9.23
2023-01-08T22:56:40.705Z,9.25
2023-01-08T22:59:08.046Z,9.18
2023-01-08T23:01:35.870Z,9.12
2023-01-08T23:04:04.008Z,9.15
2023-01-08T23:06:32.140Z,9.01
2023-01-08T23:09:00.023Z,9.07
2023-01-08T23:11:28.292Z,9.06
2023-01-08T23:13:56.435Z,9.06
2023-01-08T23:16:25.640Z,8.98
2023-01-08T23:18:54.597Z,9.03
2023-01-08T23:21:23.675Z,9.06
2023-01-08T23:23:51.100Z,8.99
2023-01-08T23:26:21.551Z,9.06
2023-01-08T23:28:50.173Z,9.04
2023-01-08T23:31:21.205Z,8.99
2023-01-08T23:33:49.203Z,9.00
2023-01-08T23:36:21.026Z,8.91
2023-01-08T23:38:53.142Z,8.94
2023-01-08T23:41:23.150Z,8.97
2023-01-08T23:43:50.510Z,9.00
2023-01-08T23:46:18.235Z,8.94
2023-01-08T23:48:45.606Z,8.92
2023-01-08T23:51:13.042Z,8.86
2023-01-08T23:53:40.349Z,8.85
2023-01-08T23:56:07.958Z,8.98
2023-01-08T23:58:35.983Z,9.07
